createdAt,value
2018-06-02T00:01:50.564Z,98464.84
2018-06-02T00:04:18.043Z,98467.13
2018-06-02T00:06:45.517Z,98469.59
2018-06-02T00:09:12.977Z,98470.78
2018-06-02T00:11:40.461Z,98470.08
2018-06-02T00:14:07.925Z,98467.37
2018-06-02T00:16:35.418Z,98464.17
2018-06-02T00:19:03.222Z,98470.36
2018-06-02T00:21:30.688Z,98469.09
2018-06-02T00:23:58.180Z,98464.66
2018-06-02T00:26:25.647Z,98467.02
2018-06-02T00:28:53.131Z,98466.81
2018-06-02T00:31:20.593Z,98470.39
2018-06-02T00:33:48.052Z,98464.33
2018-06-02T00:36:15.538Z,98461.34
2018-06-02T00:38:43.008Z,98457.62
2018-06-02T00:41:10.487Z,98456.28
2018-06-02T00:43:37.952Z,98453.47
2018-06-02T00:46:05.445Z,98452.87
2018-06-02T00:48:32.908Z,98452.45
2018-06-02T00:51:00.376Z,98450.23
2018-06-02T00:53:27.860Z,98452.03
2018-06-02T00:55:55.330Z,98446.69
2018-06-02T00:58:22.828Z,98448.94
2018-06-02T01:00:50.291Z,98444.09
2018-06-02T01:03:17.923Z,98446.66
2018-06-02T01:05:45.385Z,98447.75
2018-06-02T01:08:12.841Z,98447.85
2018-06-02T01:10:40.324Z,98446.77
2018-06-02T01:13:07.788Z,98449.47
2018-06-02T01:15:35.446Z,98446.80
2018-06-02T01:18:02.908Z,98444.52
2018-06-02T01:20:30.390Z,98439.56
2018-06-02T01:22:57.862Z,98433.08
2018-06-02T01:25:25.328Z,98438.13
2018-06-02T01:27:52.819Z,98434.02
2018-06-02T01:30:20.284Z,98434.34
2018-06-02T01:32:47.773Z,98438.97
2018-06-02T01:35:15.228Z,98426.56
2018-06-02T01:37:42.708Z,98437.17
2018-06-02T01:40:10.180Z,98437.86
2018-06-02T01:42:37.643Z,98431.94
2018-06-02T01:45:05.292Z,98434.95
2018-06-02T01:47:32.752Z,98429.61
2018-06-02T01:50:00.237Z,98431.49
2018-06-02T01:52:27.712Z,98426.03
2018-06-02T01:54:55.188Z,98428.84
2018-06-02T01:57:22.642Z,98425.66
2018-06-02T01:59:50.105Z,98429.73
2018-06-02T02:02:17.586Z,98425.31
2018-06-02T02:04:45.041Z,98422.13
2018-06-02T02:07:12.525Z,98427.51
2018-06-02T02:09:39.984Z,98427.67
2018-06-02T02:12:07.463Z,98427.31
2018-06-02T02:14:34.915Z,98427.75
2018-06-02T02:17:02.380Z,98423.08
2018-06-02T02:19:29.852Z,98424.23
2018-06-02T02:21:57.307Z,98425.28
2018-06-02T02:24:24.799Z,98418.91
2018-06-02T02:26:52.256Z,98423.22
2018-06-02T02:29:19.722Z,98425.80
2018-06-02T02:31:47.205Z,98421.40
2018-06-02T02:34:14.670Z,98427.59
2018-06-02T02:36:42.156Z,98433.28
2018-06-02T02:39:09.623Z,98436.50
2018-06-02T02:41:37.103Z,98433.57
2018-06-02T02:44:04.582Z,98435.81
2018-06-02T02:46:32.040Z,98432.91
2018-06-02T02:48:59.520Z,98428.38
2018-06-02T02:51:26.983Z,98421.30
2018-06-02T02:53:54.625Z,98422.87
2018-06-02T02:56:22.093Z,98429.11
2018-06-02T02:58:49.553Z,98420.51
2018-06-02T03:01:17.023Z,98426.44
2018-06-02T03:03:44.480Z,98429.27
2018-06-02T03:06:11.962Z,98427.88
2018-06-02T03:08:39.419Z,98433.98
2018-06-02T03:11:06.875Z,98438.47
2018-06-02T03:13:34.358Z,98438.35
2018-06-02T03:16:01.823Z,98432.55
2018-06-02T03:18:29.295Z,98430.73
2018-06-02T03:20:56.748Z,98430.42
2018-06-02T03:23:24.209Z,98438.84
2018-06-02T03:25:51.691Z,98439.86
2018-06-02T03:28:19.149Z,98443.24
2018-06-02T03:30:46.629Z,98443.20
2018-06-02T03:33:14.085Z,98440.05
2018-06-02T03:35:41.565Z,98448.67
2018-06-02T03:38:09.024Z,98451.98
2018-06-02T03:40:36.840Z,98457.50
2018-06-02T03:43:04.301Z,98451.75
2018-06-02T03:45:31.757Z,98459.50
2018-06-02T03:47:59.232Z,98463.81
2018-06-02T03:50:26.683Z,98462.05
2018-06-02T03:52:54.160Z,98461.31
2018-06-02T03:55:21.616Z,98464.34
2018-06-02T04:04:32.189Z,98474.52
2018-06-02T04:06:59.646Z,98478.16
2018-06-02T04:09:27.113Z,98470.22
2018-06-02T04:11:54.592Z,98470.58
2018-06-02T04:14:22.064Z,98473.08
2018-06-02T04:16:49.553Z,98471.75
2018-06-02T04:19:17.029Z,98465.77
2018-06-02T04:21:44.487Z,98468.36
2018-06-02T04:24:12.107Z,98480.64
2018-06-02T04:26:39.571Z,98481.44
2018-06-02T04:29:07.053Z,98482.04
2018-06-02T04:31:34.522Z,98481.91
2018-06-02T04:34:01.993Z,98481.38
2018-06-02T04:36:29.472Z,98482.66
2018-06-02T04:38:56.945Z,98483.84
2018-06-02T04:41:24.432Z,98483.30
2018-06-02T04:43:51.896Z,98482.34
2018-06-02T04:46:19.366Z,98485.69
2018-06-02T04:48:46.851Z,98490.14
2018-06-02T04:51:14.329Z,98493.97
2018-06-02T04:53:41.813Z,98494.08
2018-06-02T04:56:09.284Z,98495.34
2018-06-02T04:58:36.779Z,98495.67
2018-06-02T05:01:04.351Z,98498.34
2018-06-02T05:03:31.825Z,98499.36
2018-06-02T05:05:59.305Z,98500.39
2018-06-02T05:08:26.773Z,98502.73
2018-06-02T05:10:54.232Z,98504.14
2018-06-02T05:13:21.729Z,98501.48
2018-06-02T05:15:49.419Z,98503.12
2018-06-02T05:18:16.912Z,98501.30
2018-06-02T05:20:44.388Z,98508.88
2018-06-02T05:23:11.868Z,98510.53
2018-06-02T05:25:39.331Z,98513.36
2018-06-02T05:28:06.799Z,98516.68
2018-06-02T05:30:34.291Z,98517.55
2018-06-02T05:33:01.762Z,98524.94
2018-06-02T05:35:29.253Z,98521.59
2018-06-02T05:37:56.728Z,98522.66
2018-06-02T05:40:24.225Z,98521.89
2018-06-02T05:42:51.696Z,98512.69
2018-06-02T05:45:19.164Z,98520.91
2018-06-02T05:47:46.647Z,98520.41
2018-06-02T05:50:14.104Z,98533.85
2018-06-02T05:52:41.608Z,98530.37
2018-06-02T05:55:09.076Z,98540.95
2018-06-02T05:57:36.556Z,98536.95
2018-06-02T06:00:04.037Z,98536.20
2018-06-02T06:02:31.589Z,98539.18
2018-06-02T06:04:59.093Z,98546.31
2018-06-02T06:07:26.553Z,98537.19
2018-06-02T06:09:54.015Z,98542.73
2018-06-02T06:12:21.496Z,98555.37
2018-06-02T06:14:48.952Z,98551.45
2018-06-02T06:17:16.417Z,98542.66
2018-06-02T06:19:43.877Z,98547.02
2018-06-02T06:22:11.324Z,98543.47
2018-06-02T06:24:38.815Z,98542.48
2018-06-02T06:27:06.366Z,98547.84
2018-06-02T06:29:33.848Z,98538.97
2018-06-02T06:32:01.300Z,98541.99
2018-06-02T06:34:28.763Z,98543.24
2018-06-02T06:36:56.275Z,98546.08
2018-06-02T06:39:23.700Z,98539.16
2018-06-02T06:41:51.179Z,98547.02
2018-06-02T06:44:18.640Z,98549.16
2018-06-02T06:46:46.097Z,98547.51
2018-06-02T06:49:13.573Z,98547.77
2018-06-02T06:51:41.045Z,98549.11
2018-06-02T06:54:08.525Z,98550.34
2018-06-02T06:56:35.973Z,98544.08
2018-06-02T06:59:03.467Z,98541.48
2018-06-02T07:01:30.930Z,98542.16
2018-06-02T07:03:58.392Z,98539.73
2018-06-02T07:06:25.865Z,98541.31
2018-06-02T07:08:53.385Z,98543.94
2018-06-02T07:11:20.818Z,98550.68
2018-06-02T07:13:48.282Z,98555.63
2018-06-02T07:16:15.743Z,98556.97
2018-06-02T07:18:43.229Z,98552.53
2018-06-02T07:21:10.687Z,98564.31
2018-06-02T07:23:38.171Z,98558.22
2018-06-02T07:26:05.627Z,98566.41
2018-06-02T07:28:33.082Z,98556.41
2018-06-02T07:31:00.560Z,98564.91
2018-06-02T07:33:28.012Z,98564.48
2018-06-02T07:35:55.479Z,98564.20
2018-06-02T07:38:22.927Z,98569.00
2018-06-02T07:40:50.381Z,98568.03
2018-06-02T07:43:17.893Z,98568.58
2018-06-02T07:45:45.340Z,98564.05
2018-06-02T07:48:12.815Z,98570.16
2018-06-02T07:50:40.284Z,98575.95
2018-06-02T07:53:07.744Z,98571.75
2018-06-02T07:55:35.588Z,98577.80
2018-06-02T07:58:03.039Z,98564.81
2018-06-02T08:00:30.506Z,98578.45
2018-06-02T08:02:57.971Z,98576.20
2018-06-02T08:05:25.432Z,98579.91
2018-06-02T08:07:52.908Z,98583.39
2018-06-02T08:10:20.375Z,98581.38
2018-06-02T08:12:47.849Z,98582.00
2018-06-02T08:15:15.328Z,98587.46
2018-06-02T08:17:42.782Z,98577.03
2018-06-02T08:20:10.256Z,98582.38
2018-06-02T08:22:37.716Z,98581.11
2018-06-02T08:25:05.189Z,98590.59
2018-06-02T08:27:32.648Z,98587.22
2018-06-02T08:30:00.105Z,98580.28
2018-06-02T08:32:27.588Z,98581.08
2018-06-02T08:34:55.040Z,98583.40
2018-06-02T08:37:22.517Z,98579.28
2018-06-02T08:39:49.972Z,98567.67
2018-06-02T08:42:17.447Z,98566.05
2018-06-02T08:44:44.915Z,98571.03
2018-06-02T08:47:12.392Z,98568.59
2018-06-02T08:49:39.886Z,98571.19
2018-06-02T08:52:07.341Z,98574.01
2018-06-02T08:54:34.800Z,98571.11
2018-06-02T08:57:02.271Z,98561.12
2018-06-02T08:59:29.746Z,98559.80
2018-06-02T09:01:57.236Z,98556.77
2018-06-02T09:04:24.699Z,98564.42
2018-06-02T09:06:52.152Z,98565.52
2018-06-02T09:09:19.624Z,98559.05
2018-06-02T09:11:47.075Z,98577.41
2018-06-02T09:14:14.544Z,98565.16
2018-06-02T09:16:42.011Z,98570.63
2018-06-02T09:19:09.500Z,98579.59
2018-06-02T09:21:36.957Z,98565.67
2018-06-02T09:24:04.415Z,98563.21
2018-06-02T09:26:31.889Z,98566.21
2018-06-02T09:28:59.349Z,98575.11
2018-06-02T09:31:26.840Z,98552.52
2018-06-02T09:33:54.316Z,98560.69
2018-06-02T09:36:21.769Z,98569.70
2018-06-02T09:38:49.241Z,98572.66
2018-06-02T09:41:16.693Z,98572.89
2018-06-02T09:43:44.175Z,98574.34
2018-06-02T09:46:11.627Z,98568.52
2018-06-02T09:48:39.081Z,98558.14
2018-06-02T09:51:06.554Z,98568.41
2018-06-02T09:53:34.037Z,98567.61
2018-06-02T09:56:01.964Z,98575.33
2018-06-02T09:58:29.441Z,98564.79
2018-06-02T10:00:56.907Z,98570.56
2018-06-02T10:03:25.436Z,98574.55
2018-06-02T10:05:52.957Z,98569.09
2018-06-02T10:08:20.439Z,98565.47
2018-06-02T10:10:47.906Z,98559.25
2018-06-02T10:13:15.365Z,98564.67
2018-06-02T10:15:42.843Z,98567.90
2018-06-02T10:18:10.292Z,98566.75
2018-06-02T10:20:37.762Z,98567.39
2018-06-02T10:23:05.219Z,98568.54
2018-06-02T10:25:32.673Z,98565.31
2018-06-02T10:28:00.140Z,98578.13
2018-06-02T10:30:27.589Z,98565.73
2018-06-02T10:32:56.524Z,98555.28
2018-06-02T10:35:24.016Z,98560.72
2018-06-02T10:37:51.472Z,98557.17
2018-06-02T10:40:18.924Z,98567.57
2018-06-02T10:42:46.396Z,98559.75
2018-06-02T10:45:13.863Z,98558.39
2018-06-02T10:47:41.315Z,98545.53
2018-06-02T10:50:08.800Z,98544.06
2018-06-02T10:52:36.260Z,98551.26
2018-06-02T10:55:03.748Z,98549.83
2018-06-02T10:57:31.200Z,98542.02
2018-06-02T10:59:58.651Z,98537.45
2018-06-02T11:02:26.128Z,98547.31
2018-06-02T11:04:53.580Z,98537.83
2018-06-02T11:07:21.069Z,98523.13
2018-06-02T11:09:48.528Z,98525.41
2018-06-02T11:12:15.985Z,98521.44
2018-06-02T11:14:43.459Z,98504.20
2018-06-02T11:17:10.908Z,98507.51
2018-06-02T11:19:38.466Z,98511.12
2018-06-02T11:22:05.875Z,98512.38
2018-06-02T11:24:33.327Z,98516.09
2018-06-02T11:27:00.804Z,98513.81
2018-06-02T11:29:28.259Z,98506.12
2018-06-02T11:31:55.736Z,98498.94
2018-06-02T11:34:23.195Z,98491.09
2018-06-02T11:36:50.660Z,98491.09
2018-06-02T11:39:18.134Z,98491.48
2018-06-02T11:41:45.589Z,98489.03
2018-06-02T11:44:13.140Z,98477.94
2018-06-02T11:46:40.541Z,98484.19
2018-06-02T11:49:08.001Z,98477.13
2018-06-02T11:51:35.468Z,98475.78
2018-06-02T11:54:02.924Z,98481.88
2018-06-02T11:56:30.390Z,98471.27
2018-06-02T11:58:57.854Z,98475.67
2018-06-02T12:01:25.302Z,98474.64
2018-06-02T12:03:52.803Z,98469.45
2018-06-02T12:06:20.262Z,98465.03
2018-06-02T12:08:47.993Z,98445.20
2018-06-02T12:11:15.455Z,98448.41
2018-06-02T12:13:42.908Z,98449.72
2018-06-02T12:16:10.372Z,98440.39
2018-06-02T12:18:37.827Z,98438.78
2018-06-02T12:21:05.299Z,98441.13
2018-06-02T12:23:32.756Z,98436.00
2018-06-02T12:26:00.225Z,98435.30
2018-06-02T12:28:27.723Z,98423.98
2018-06-02T12:30:55.139Z,98421.03
2018-06-02T12:33:22.617Z,98407.97
2018-06-02T12:35:50.066Z,98409.56
2018-06-02T12:38:17.541Z,98407.77
2018-06-02T12:40:45.000Z,98396.39
2018-06-02T12:43:12.443Z,98391.56
2018-06-02T12:45:39.912Z,98388.79
2018-06-02T12:48:07.365Z,98384.72
2018-06-02T12:50:34.849Z,98378.27
2018-06-02T12:53:02.313Z,98374.88
2018-06-02T12:55:29.776Z,98371.16
2018-06-02T12:57:57.236Z,98368.20
2018-06-02T13:00:24.692Z,98364.55
2018-06-02T13:02:52.157Z,98361.20
2018-06-02T13:05:19.610Z,98364.97
2018-06-02T13:07:47.087Z,98360.41
2018-06-02T13:10:14.543Z,98356.46
2018-06-02T13:12:41.995Z,98356.85
2018-06-02T13:15:09.469Z,98360.44
2018-06-02T13:17:36.925Z,98362.48
2018-06-02T13:20:04.396Z,98361.42
2018-06-02T13:22:31.855Z,98362.05
2018-06-02T13:24:59.337Z,98363.14
2018-06-02T13:27:26.787Z,98358.55
2018-06-02T13:29:54.249Z,98350.62
2018-06-02T13:32:21.719Z,98343.67
2018-06-02T13:34:49.180Z,98352.52
2018-06-02T13:37:16.664Z,98352.48
2018-06-02T13:39:44.119Z,98341.88
2018-06-02T13:42:11.573Z,98345.34
2018-06-02T13:44:39.041Z,98334.34
2018-06-02T13:47:06.503Z,98333.76
2018-06-02T13:49:34.008Z,98338.42
2018-06-02T13:52:01.459Z,98334.29
2018-06-02T13:54:28.924Z,98333.41
2018-06-02T13:56:56.527Z,98336.23
2018-06-02T13:59:23.984Z,98330.73
2018-06-02T14:01:51.686Z,98329.17
2018-06-02T14:04:19.139Z,98318.88
2018-06-02T14:06:46.584Z,98322.73
2018-06-02T14:09:14.052Z,98321.17
2018-06-02T14:11:41.500Z,98319.88
2018-06-02T14:14:08.981Z,98314.04
2018-06-02T14:16:36.440Z,98324.15
2018-06-02T14:19:03.900Z,98320.28
2018-06-02T14:21:31.386Z,98300.01
2018-06-02T14:23:58.845Z,98303.94
2018-06-02T14:26:26.313Z,98306.44
2018-06-02T14:28:53.764Z,98317.17
2018-06-02T14:31:21.228Z,98310.60
2018-06-02T14:33:48.703Z,98304.84
2018-06-02T14:36:16.152Z,98305.28
2018-06-02T14:38:43.618Z,98296.77
2018-06-02T14:41:11.093Z,98302.58
2018-06-02T14:43:38.623Z,98302.09
2018-06-02T14:46:06.043Z,98301.95
2018-06-02T14:48:33.505Z,98294.72
2018-06-02T14:51:00.995Z,98295.98
2018-06-02T14:53:28.460Z,98301.91
2018-06-02T14:55:55.936Z,98297.67
2018-06-02T14:58:23.401Z,98291.49
2018-06-02T15:00:50.860Z,98287.89
2018-06-02T15:03:18.335Z,98275.58
2018-06-02T15:05:45.784Z,98285.67
2018-06-02T15:08:13.275Z,98269.37
2018-06-02T15:10:40.731Z,98277.98
2018-06-02T15:13:08.199Z,98257.14
2018-06-02T15:15:35.667Z,98253.80
2018-06-02T15:18:03.120Z,98260.28
2018-06-02T15:20:30.588Z,98251.59
2018-06-02T15:22:58.042Z,98243.44
2018-06-02T15:25:25.516Z,98245.73
2018-06-02T15:27:52.987Z,98246.80
2018-06-02T15:30:20.442Z,98252.45
2018-06-02T15:32:47.904Z,98247.84
2018-06-02T15:35:15.353Z,98245.47
2018-06-02T15:37:42.822Z,98249.70
2018-06-02T15:40:10.275Z,98246.35
2018-06-02T15:42:37.727Z,98244.12
2018-06-02T15:45:05.208Z,98241.11
2018-06-02T15:47:32.655Z,98233.83
2018-06-02T15:50:00.186Z,98231.95
2018-06-02T15:52:27.640Z,98237.06
2018-06-02T15:54:55.109Z,98238.00
2018-06-02T15:57:22.579Z,98234.13
2018-06-02T15:59:50.029Z,98227.92
2018-06-02T16:02:17.488Z,98228.66
2018-06-02T16:04:44.941Z,98233.45
2018-06-02T16:07:12.404Z,98228.77
2018-06-02T16:09:39.859Z,98230.23
2018-06-02T16:12:07.376Z,98231.96
2018-06-02T16:14:34.908Z,98225.70
2018-06-02T16:17:02.366Z,98231.80
2018-06-02T16:19:29.836Z,98225.71
2018-06-02T16:21:57.336Z,98228.44
2018-06-02T16:24:24.781Z,98216.47
2018-06-02T16:26:52.261Z,98215.38
2018-06-02T16:29:19.724Z,98214.15
2018-06-02T16:31:47.204Z,98222.45
2018-06-02T16:34:14.659Z,98225.16
2018-06-02T16:36:42.113Z,98229.09
2018-06-02T16:39:10.100Z,98234.13
2018-06-02T16:41:37.551Z,98234.83
2018-06-02T16:44:05.020Z,98236.75
2018-06-02T16:46:32.468Z,98231.20
2018-06-02T16:48:59.920Z,98231.33
2018-06-02T16:51:27.397Z,98240.53
2018-06-02T16:53:54.858Z,98240.55
2018-06-02T16:56:22.329Z,98263.33
2018-06-02T16:58:49.784Z,98317.30
2018-06-02T17:01:17.248Z,98295.05
2018-06-02T17:03:44.712Z,98277.28
2018-06-02T17:06:12.199Z,98264.19
2018-06-02T17:08:39.699Z,98264.44
2018-06-02T17:11:07.156Z,98255.54
2018-06-02T17:13:34.645Z,98256.61
2018-06-02T17:16:02.116Z,98259.78
2018-06-02T17:18:29.572Z,98257.94
2018-06-02T17:20:57.791Z,98261.81
2018-06-02T17:23:25.248Z,98257.47
2018-06-02T17:25:52.713Z,98256.17
2018-06-02T17:28:20.177Z,98260.79
2018-06-02T17:30:47.632Z,98249.36
2018-06-02T17:33:15.099Z,98249.98
2018-06-02T17:35:42.565Z,98252.11
2018-06-02T17:38:10.022Z,98255.34
2018-06-02T17:40:37.492Z,98255.74
2018-06-02T17:43:04.950Z,98251.88
2018-06-02T17:45:32.421Z,98246.69
2018-06-02T17:47:59.879Z,98249.39
2018-06-02T17:50:27.331Z,98243.05
2018-06-02T17:52:55.466Z,98250.79
2018-06-02T17:55:22.932Z,98250.64
2018-06-02T17:57:50.411Z,98252.54
2018-06-02T18:00:17.856Z,98247.81
2018-06-02T18:02:45.335Z,98251.66
2018-06-02T18:05:12.826Z,98243.39
2018-06-02T18:07:40.293Z,98248.39
2018-06-02T18:10:07.782Z,98248.75
2018-06-02T18:12:36.010Z,98243.71
2018-06-02T18:15:03.486Z,98248.45
2018-06-02T18:17:30.955Z,98245.78
2018-06-02T18:19:58.416Z,98244.81
2018-06-02T18:22:25.887Z,98248.20
2018-06-02T18:24:53.357Z,98252.00
2018-06-02T18:27:20.814Z,98247.63
2018-06-02T18:29:48.288Z,98252.31
2018-06-02T18:32:15.748Z,98252.28
2018-06-02T18:34:43.227Z,98251.55
2018-06-02T18:37:10.700Z,98254.20
2018-06-02T18:39:38.160Z,98262.87
2018-06-02T18:42:05.667Z,98258.38
2018-06-02T18:44:33.157Z,98256.86
2018-06-02T18:47:00.670Z,98262.75
2018-06-02T18:49:28.138Z,98262.92
2018-06-02T18:51:55.593Z,98275.16
2018-06-02T18:54:23.061Z,98275.75
2018-06-02T18:56:50.538Z,98277.52
2018-06-02T18:59:18.091Z,98283.09
2018-06-02T19:01:45.540Z,98283.82
2018-06-02T19:04:13.008Z,98285.86
2018-06-02T19:06:40.485Z,98298.35
2018-06-02T19:09:07.939Z,98299.99
2018-06-02T19:11:35.424Z,98297.59
2018-06-02T19:14:02.902Z,98304.08
2018-06-02T19:16:30.383Z,98314.80
2018-06-02T19:18:57.845Z,98317.86
2018-06-02T19:21:25.304Z,98320.78
2018-06-02T19:23:52.775Z,98330.70
2018-06-02T19:26:20.228Z,98329.58
2018-06-02T19:28:47.722Z,98337.27
2018-06-02T19:31:15.183Z,98337.26
2018-06-02T19:33:42.636Z,98345.47
2018-06-02T19:36:10.125Z,98350.19
2018-06-02T19:38:37.587Z,98352.73
2018-06-02T19:41:05.060Z,98362.07
2018-06-02T19:43:32.511Z,98353.89
2018-06-02T19:45:59.986Z,98360.66
2018-06-02T19:48:27.448Z,98359.72
2018-06-02T19:50:54.896Z,98366.95
2018-06-02T19:53:22.367Z,98358.23
2018-06-02T19:55:49.814Z,98362.66
2018-06-02T19:58:17.304Z,98364.12
2018-06-02T20:00:44.759Z,98368.36
2018-06-02T20:03:12.231Z,98370.48
2018-06-02T20:05:39.689Z,98363.92
2018-06-02T20:08:07.144Z,98365.69
2018-06-02T20:10:34.625Z,98361.20
2018-06-02T20:13:02.083Z,98367.05
2018-06-02T20:15:29.555Z,98372.48
2018-06-02T20:17:57.016Z,98370.46
2018-06-02T20:20:24.491Z,98372.56
2018-06-02T20:22:51.959Z,98363.81
2018-06-02T20:25:19.407Z,98370.77
2018-06-02T20:27:46.903Z,98369.05
2018-06-02T20:30:14.360Z,98364.64
2018-06-02T20:32:41.812Z,98369.84
2018-06-02T20:35:09.283Z,98375.92
2018-06-02T20:37:36.744Z,98378.19
2018-06-02T20:40:04.251Z,98374.83
2018-06-02T20:42:31.717Z,98377.50
2018-06-02T20:44:59.172Z,98375.81
2018-06-02T20:47:26.631Z,98377.45
2018-06-02T20:49:54.084Z,98375.11
2018-06-02T20:52:21.586Z,98378.05
2018-06-02T20:54:49.048Z,98376.03
2018-06-02T20:57:16.529Z,98385.87
2018-06-02T20:59:44.016Z,98388.01
2018-06-02T21:02:11.477Z,98386.84
2018-06-02T21:04:38.969Z,98385.20
2018-06-02T21:07:07.516Z,98381.66
2018-06-02T21:09:35.231Z,98381.56
2018-06-02T21:12:02.712Z,98378.14
2018-06-02T21:14:30.165Z,98375.64
2018-06-02T21:16:57.669Z,98383.09
2018-06-02T21:19:25.126Z,98384.27
2018-06-02T21:21:52.585Z,98383.69
2018-06-02T21:24:20.052Z,98384.94
2018-06-02T21:26:47.511Z,98387.59
2018-06-02T21:29:14.984Z,98391.19
2018-06-02T21:31:42.441Z,98395.63
2018-06-02T21:34:09.905Z,98395.30
2018-06-02T21:36:37.413Z,98395.98
2018-06-02T21:39:05.792Z,98398.49
2018-06-02T21:41:33.299Z,98404.92
2018-06-02T21:44:00.752Z,98408.75
2018-06-02T21:46:28.207Z,98421.70
2018-06-02T21:48:55.680Z,98421.19
2018-06-02T21:51:23.132Z,98420.51
2018-06-02T21:53:50.625Z,98426.05
2018-06-02T21:56:18.080Z,98422.95
2018-06-02T21:58:45.532Z,98422.97
2018-06-02T22:01:13.004Z,98423.88
2018-06-02T22:03:40.461Z,98429.61
2018-06-02T22:06:07.928Z,98425.70
2018-06-02T22:08:35.368Z,98426.40
2018-06-02T22:11:02.824Z,98428.73
2018-06-02T22:13:30.308Z,98423.72
2018-06-02T22:15:57.788Z,98430.52
2018-06-02T22:18:25.290Z,98422.95
2018-06-02T22:20:52.767Z,98424.02
2018-06-02T22:23:20.224Z,98416.84
2018-06-02T22:25:47.732Z,98425.58
2018-06-02T22:28:15.197Z,98424.59
2018-06-02T22:30:42.692Z,98423.41
2018-06-02T22:33:10.160Z,98427.02
2018-06-02T22:35:37.627Z,98423.02
2018-06-02T22:38:05.105Z,98432.77
2018-06-02T22:40:32.576Z,98428.16
2018-06-02T22:43:00.053Z,98429.17
2018-06-02T22:45:27.515Z,98430.68
2018-06-02T22:47:54.977Z,98422.18
2018-06-02T22:50:22.461Z,98424.58
2018-06-02T22:52:49.926Z,98433.52
2018-06-02T22:55:17.428Z,98430.58
2018-06-02T22:57:44.888Z,98426.98
2018-06-02T23:00:20.136Z,98433.42
2018-06-02T23:02:47.607Z,98428.86
2018-06-02T23:05:15.095Z,98421.64
2018-06-02T23:07:42.600Z,98425.89
2018-06-02T23:10:10.060Z,98421.23
2018-06-02T23:12:37.545Z,98421.99
2018-06-02T23:15:05.000Z,98422.99
2018-06-02T23:17:32.472Z,98429.34
2018-06-02T23:19:59.932Z,98424.17
2018-06-02T23:22:39.132Z,98423.95
2018-06-02T23:25:06.608Z,98426.16
2018-06-02T23:27:34.067Z,98423.21
2018-06-02T23:30:01.795Z,98429.06
2018-06-02T23:32:29.258Z,98430.73
2018-06-02T23:34:56.739Z,98428.47
2018-06-02T23:37:24.205Z,98427.77
2018-06-02T23:39:51.704Z,98428.33
2018-06-02T23:42:19.164Z,98427.03
2018-06-02T23:44:46.633Z,98433.04
2018-06-02T23:47:14.175Z,98429.36
2018-06-02T23:49:41.669Z,98429.61
2018-06-02T23:52:09.152Z,98423.20
2018-06-02T23:54:36.622Z,98413.94
2018-06-02T23:57:04.112Z,98416.13
2018-06-02T23:59:31.584Z,98427.09
